sensor_id;sensor_type;location;lat;lon;timestamp;P1;durP1;ratioP1;P2;durP2;ratioP2
78372;SDS011;67656;52.074;4.758;2023-03-04T00:00:32;9.27;;;1.60;;
78372;SDS011;67656;52.074;4.758;2023-03-04T00:05:32;5.02;;;1.38;;
78372;SDS011;67656;52.074;4.758;2023-03-04T00:10:32;6.22;;;1.70;;
78372;SDS011;67656;52.074;4.758;2023-03-04T00:15:33;6.68;;;1.55;;
78372;SDS011;67656;52.074;4.758;2023-03-04T00:20:33;9.07;;;1.60;;
78372;SDS011;67656;52.074;4.758;2023-03-04T00:25:33;5.57;;;1.52;;
78372;SDS011;67656;52.074;4.758;2023-03-04T00:30:33;10.10;;;1.47;;
78372;SDS011;67656;52.074;4.758;2023-03-04T00:35:34;7.17;;;1.53;;
78372;SDS011;67656;52.074;4.758;2023-03-04T00:40:34;4.40;;;0.90;;
78372;SDS011;67656;52.074;4.758;2023-03-04T00:45:34;8.73;;;1.70;;
78372;SDS011;67656;52.074;4.758;2023-03-04T00:50:35;7.20;;;1.10;;
78372;SDS011;67656;52.074;4.758;2023-03-04T00:55:35;7.47;;;1.40;;
78372;SDS011;67656;52.074;4.758;2023-03-04T01:00:36;9.43;;;1.17;;
78372;SDS011;67656;52.074;4.758;2023-03-04T01:05:36;10.76;;;1.28;;
78372;SDS011;67656;52.074;4.758;2023-03-04T01:10:37;8.30;;;1.40;;
78372;SDS011;67656;52.074;4.758;2023-03-04T01:15:37;11.23;;;1.27;;
78372;SDS011;67656;52.074;4.758;2023-03-04T01:20:39;5.50;;;1.10;;
78372;SDS011;67656;52.074;4.758;2023-03-04T01:25:39;9.70;;;1.43;;
78372;SDS011;67656;52.074;4.758;2023-03-04T01:30:39;8.30;;;1.54;;
78372;SDS011;67656;52.074;4.758;2023-03-04T01:35:40;9.77;;;1.23;;
78372;SDS011;67656;52.074;4.758;2023-03-04T01:40:40;4.93;;;1.00;;
78372;SDS011;67656;52.074;4.758;2023-03-04T01:45:40;2.93;;;0.90;;
78372;SDS011;67656;52.074;4.758;2023-03-04T01:50:41;8.37;;;1.20;;
78372;SDS011;67656;52.074;4.758;2023-03-04T01:55:42;7.03;;;1.40;;
78372;SDS011;67656;52.074;4.758;2023-03-04T02:00:42;8.37;;;0.87;;
78372;SDS011;67656;52.074;4.758;2023-03-04T02:05:46;6.63;;;0.70;;
78372;SDS011;67656;52.074;4.758;2023-03-04T02:10:48;5.63;;;1.10;;
78372;SDS011;67656;52.074;4.758;2023-03-04T02:15:50;5.97;;;1.30;;
78372;SDS011;67656;52.074;4.758;2023-03-04T02:20:53;10.53;;;1.30;;
78372;SDS011;67656;52.074;4.758;2023-03-04T02:31:30;7.77;;;1.57;;
78372;SDS011;67656;52.074;4.758;2023-03-04T02:36:33;6.67;;;1.07;;
78372;SDS011;67656;52.074;4.758;2023-03-04T02:41:35;6.40;;;1.07;;
78372;SDS011;67656;52.074;4.758;2023-03-04T02:46:36;9.33;;;1.20;;
78372;SDS011;67656;52.074;4.758;2023-03-04T02:51:36;4.20;;;1.10;;
78372;SDS011;67656;52.074;4.758;2023-03-04T02:56:36;12.57;;;1.07;;
78372;SDS011;67656;52.074;4.758;2023-03-04T03:01:37;5.27;;;1.40;;
78372;SDS011;67656;52.074;4.758;2023-03-04T03:06:38;8.80;;;0.90;;
78372;SDS011;67656;52.074;4.758;2023-03-04T03:11:39;5.07;;;0.83;;
78372;SDS011;67656;52.074;4.758;2023-03-04T03:16:40;6.20;;;1.70;;
78372;SDS011;67656;52.074;4.758;2023-03-04T03:21:40;5.87;;;1.00;;
78372;SDS011;67656;52.074;4.758;2023-03-04T03:26:41;5.10;;;1.00;;
78372;SDS011;67656;52.074;4.758;2023-03-04T03:31:41;5.80;;;1.03;;
78372;SDS011;67656;52.074;4.758;2023-03-04T03:36:41;11.60;;;1.70;;
78372;SDS011;67656;52.074;4.758;2023-03-04T03:41:42;7.50;;;1.03;;
78372;SDS011;67656;52.074;4.758;2023-03-04T03:46:42;6.53;;;1.30;;
78372;SDS011;67656;52.074;4.758;2023-03-04T03:51:42;4.04;;;0.86;;
78372;SDS011;67656;52.074;4.758;2023-03-04T03:56:43;4.80;;;1.27;;
78372;SDS011;67656;52.074;4.758;2023-03-04T04:01:43;6.70;;;1.30;;
78372;SDS011;67656;52.074;4.758;2023-03-04T04:06:43;7.27;;;1.43;;
78372;SDS011;67656;52.074;4.758;2023-03-04T04:11:44;6.47;;;1.97;;
78372;SDS011;67656;52.074;4.758;2023-03-04T04:16:44;3.70;;;0.97;;
78372;SDS011;67656;52.074;4.758;2023-03-04T04:21:44;7.13;;;1.47;;
78372;SDS011;67656;52.074;4.758;2023-03-04T04:26:45;7.37;;;1.30;;
78372;SDS011;67656;52.074;4.758;2023-03-04T04:31:45;3.30;;;0.83;;
78372;SDS011;67656;52.074;4.758;2023-03-04T04:36:45;5.06;;;1.26;;
78372;SDS011;67656;52.074;4.758;2023-03-04T04:41:46;9.00;;;1.10;;
78372;SDS011;67656;52.074;4.758;2023-03-04T04:46:46;7.73;;;1.60;;
78372;SDS011;67656;52.074;4.758;2023-03-04T04:51:46;8.50;;;1.53;;
78372;SDS011;67656;52.074;4.758;2023-03-04T04:56:47;6.77;;;1.70;;
78372;SDS011;67656;52.074;4.758;2023-03-04T05:01:47;4.18;;;1.48;;
78372;SDS011;67656;52.074;4.758;2023-03-04T05:06:47;6.30;;;1.23;;
78372;SDS011;67656;52.074;4.758;2023-03-04T05:11:48;4.85;;;1.42;;
78372;SDS011;67656;52.074;4.758;2023-03-04T05:16:48;6.17;;;1.20;;
78372;SDS011;67656;52.074;4.758;2023-03-04T05:21:48;3.03;;;1.30;;
78372;SDS011;67656;52.074;4.758;2023-03-04T05:26:49;4.40;;;1.10;;
78372;SDS011;67656;52.074;4.758;2023-03-04T05:31:49;8.57;;;1.17;;
78372;SDS011;67656;52.074;4.758;2023-03-04T05:36:49;5.33;;;1.30;;
78372;SDS011;67656;52.074;4.758;2023-03-04T05:41:50;7.24;;;1.08;;
78372;SDS011;67656;52.074;4.758;2023-03-04T05:46:50;6.10;;;0.90;;
78372;SDS011;67656;52.074;4.758;2023-03-04T05:51:50;5.20;;;1.30;;
78372;SDS011;67656;52.074;4.758;2023-03-04T05:56:51;5.63;;;1.07;;
78372;SDS011;67656;52.074;4.758;2023-03-04T06:01:51;4.27;;;0.77;;
78372;SDS011;67656;52.074;4.758;2023-03-04T06:06:51;5.55;;;1.13;;
78372;SDS011;67656;52.074;4.758;2023-03-04T06:11:51;5.67;;;1.20;;
78372;SDS011;67656;52.074;4.758;2023-03-04T06:16:52;6.30;;;1.50;;
78372;SDS011;67656;52.074;4.758;2023-03-04T06:21:52;5.34;;;1.12;;
78372;SDS011;67656;52.074;4.758;2023-03-04T06:26:52;7.70;;;1.30;;
78372;SDS011;67656;52.074;4.758;2023-03-04T06:31:53;3.97;;;1.30;;
78372;SDS011;67656;52.074;4.758;2023-03-04T06:36:53;8.83;;;1.47;;
78372;SDS011;67656;52.074;4.758;2023-03-04T06:41:53;6.47;;;1.20;;
78372;SDS011;67656;52.074;4.758;2023-03-04T06:46:54;7.67;;;1.40;;
78372;SDS011;67656;52.074;4.758;2023-03-04T06:51:54;2.70;;;1.00;;
78372;SDS011;67656;52.074;4.758;2023-03-04T06:56:55;8.00;;;1.20;;
78372;SDS011;67656;52.074;4.758;2023-03-04T07:01:55;5.27;;;1.07;;
78372;SDS011;67656;52.074;4.758;2023-03-04T07:06:55;4.02;;;0.90;;
78372;SDS011;67656;52.074;4.758;2023-03-04T07:11:56;5.37;;;0.97;;
78372;SDS011;67656;52.074;4.758;2023-03-04T07:16:56;3.07;;;1.00;;
78372;SDS011;67656;52.074;4.758;2023-03-04T07:21:56;4.03;;;1.00;;
78372;SDS011;67656;52.074;4.758;2023-03-04T07:26:57;4.63;;;0.87;;
78372;SDS011;67656;52.074;4.758;2023-03-04T07:31:57;4.23;;;0.80;;
78372;SDS011;67656;52.074;4.758;2023-03-04T07:36:57;3.30;;;0.80;;
78372;SDS011;67656;52.074;4.758;2023-03-04T07:41:58;2.48;;;0.70;;
78372;SDS011;67656;52.074;4.758;2023-03-04T07:46:58;2.28;;;0.60;;
78372;SDS011;67656;52.074;4.758;2023-03-04T07:52:01;5.37;;;0.67;;
78372;SDS011;67656;52.074;4.758;2023-03-04T08:02:03;3.20;;;1.20;;
78372;SDS011;67656;52.074;4.758;2023-03-04T08:07:03;1.87;;;0.60;;
78372;SDS011;67656;52.074;4.758;2023-03-04T08:12:04;6.48;;;0.74;;
78372;SDS011;67656;52.074;4.758;2023-03-04T08:17:05;2.45;;;0.60;;
78372;SDS011;67656;52.074;4.758;2023-03-04T08:22:05;2.83;;;0.60;;
78372;SDS011;67656;52.074;4.758;2023-03-04T08:27:06;3.13;;;0.70;;
78372;SDS011;67656;52.074;4.758;2023-03-04T08:32:06;3.10;;;0.60;;
78372;SDS011;67656;52.074;4.758;2023-03-04T08:37:06;5.40;;;0.67;;
78372;SDS011;67656;52.074;4.758;2023-03-04T08:42:07;4.23;;;0.67;;
78372;SDS011;67656;52.074;4.758;2023-03-04T08:47:07;2.00;;;0.50;;
78372;SDS011;67656;52.074;4.758;2023-03-04T08:52:07;0.78;;;0.40;;
78372;SDS011;67656;52.074;4.758;2023-03-04T08:57:08;6.92;;;0.84;;
78372;SDS011;67656;52.074;4.758;2023-03-04T09:02:08;1.75;;;0.70;;
78372;SDS011;67656;52.074;4.758;2023-03-04T09:07:09;2.33;;;0.70;;
78372;SDS011;67656;52.074;4.758;2023-03-04T09:12:09;2.53;;;0.63;;
78372;SDS011;67656;52.074;4.758;2023-03-04T09:17:09;4.15;;;0.77;;
78372;SDS011;67656;52.074;4.758;2023-03-04T09:22:11;2.33;;;0.85;;
78372;SDS011;67656;52.074;4.758;2023-03-04T09:27:11;2.38;;;0.54;;
78372;SDS011;67656;52.074;4.758;2023-03-04T09:32:11;2.13;;;0.60;;
78372;SDS011;67656;52.074;4.758;2023-03-04T09:37:11;6.20;;;0.80;;
78372;SDS011;67656;52.074;4.758;2023-03-04T09:42:14;3.78;;;0.63;;
78372;SDS011;67656;52.074;4.758;2023-03-04T09:47:35;4.43;;;0.70;;
78372;SDS011;67656;52.074;4.758;2023-03-04T09:52:41;2.72;;;0.45;;
78372;SDS011;67656;52.074;4.758;2023-03-04T10:03:24;2.38;;;0.50;;
78372;SDS011;67656;52.074;4.758;2023-03-04T10:19:25;4.17;;;0.73;;
78372;SDS011;67656;52.074;4.758;2023-03-04T10:24:44;1.47;;;0.70;;
78372;SDS011;67656;52.074;4.758;2023-03-04T10:29:46;5.22;;;0.70;;
78372;SDS011;67656;52.074;4.758;2023-03-04T10:34:46;2.28;;;0.73;;
78372;SDS011;67656;52.074;4.758;2023-03-04T10:39:46;4.85;;;1.15;;
78372;SDS011;67656;52.074;4.758;2023-03-04T10:49:55;1.70;;;0.70;;
78372;SDS011;67656;52.074;4.758;2023-03-04T10:55:13;6.13;;;1.05;;
78372;SDS011;67656;52.074;4.758;2023-03-04T11:05:17;3.94;;;0.80;;
78372;SDS011;67656;52.074;4.758;2023-03-04T11:15:24;3.35;;;0.90;;
78372;SDS011;67656;52.074;4.758;2023-03-04T11:20:30;4.63;;;1.35;;
78372;SDS011;67656;52.074;4.758;2023-03-04T11:25:37;3.63;;;0.90;;
78372;SDS011;67656;52.074;4.758;2023-03-04T11:30:43;2.97;;;0.70;;
78372;SDS011;67656;52.074;4.758;2023-03-04T11:40:59;4.77;;;1.07;;
78372;SDS011;67656;52.074;4.758;2023-03-04T11:56:50;2.42;;;1.10;;
78372;SDS011;67656;52.074;4.758;2023-03-04T12:13:06;5.75;;;1.02;;
78372;SDS011;67656;52.074;4.758;2023-03-04T12:18:32;3.10;;;1.00;;
78372;SDS011;67656;52.074;4.758;2023-03-04T12:40:31;3.97;;;1.35;;
78372;SDS011;67656;52.074;4.758;2023-03-04T12:45:42;6.90;;;1.10;;
78372;SDS011;67656;52.074;4.758;2023-03-04T12:55:59;3.88;;;0.70;;
78372;SDS011;67656;52.074;4.758;2023-03-04T13:01:09;3.33;;;0.70;;
78372;SDS011;67656;52.074;4.758;2023-03-04T13:16:29;5.43;;;0.60;;
78372;SDS011;67656;52.074;4.758;2023-03-04T13:21:32;3.20;;;0.60;;
78372;SDS011;67656;52.074;4.758;2023-03-04T13:26:45;3.78;;;0.63;;
78372;SDS011;67656;52.074;4.758;2023-03-04T13:32:04;3.05;;;0.75;;
78372;SDS011;67656;52.074;4.758;2023-03-04T13:42:37;2.90;;;0.80;;
78372;SDS011;67656;52.074;4.758;2023-03-04T13:47:43;7.35;;;1.35;;
78372;SDS011;67656;52.074;4.758;2023-03-04T13:52:45;5.30;;;0.95;;
78372;SDS011;67656;52.074;4.758;2023-03-04T13:57:49;3.75;;;0.80;;
78372;SDS011;67656;52.074;4.758;2023-03-04T14:02:50;3.65;;;1.02;;
78372;SDS011;67656;52.074;4.758;2023-03-04T14:07:50;4.07;;;1.13;;
78372;SDS011;67656;52.074;4.758;2023-03-04T14:12:54;4.82;;;0.82;;
78372;SDS011;67656;52.074;4.758;2023-03-04T14:17:57;4.68;;;0.90;;
78372;SDS011;67656;52.074;4.758;2023-03-04T14:22:59;8.10;;;1.15;;
78372;SDS011;67656;52.074;4.758;2023-03-04T14:28:19;7.68;;;1.10;;
78372;SDS011;67656;52.074;4.758;2023-03-04T14:33:21;9.32;;;1.00;;
78372;SDS011;67656;52.074;4.758;2023-03-04T14:38:25;7.37;;;1.40;;
78372;SDS011;67656;52.074;4.758;2023-03-04T14:43:30;7.97;;;1.90;;
78372;SDS011;67656;52.074;4.758;2023-03-04T14:48:42;5.38;;;1.33;;
78372;SDS011;67656;52.074;4.758;2023-03-04T14:53:54;6.90;;;1.10;;
78372;SDS011;67656;52.074;4.758;2023-03-04T14:58:56;2.88;;;0.70;;
78372;SDS011;67656;52.074;4.758;2023-03-04T15:04:02;8.13;;;1.58;;
78372;SDS011;67656;52.074;4.758;2023-03-04T15:09:06;6.90;;;1.30;;
78372;SDS011;67656;52.074;4.758;2023-03-04T15:19:45;8.07;;;1.30;;
78372;SDS011;67656;52.074;4.758;2023-03-04T15:24:57;6.03;;;1.10;;
78372;SDS011;67656;52.074;4.758;2023-03-04T15:29:58;7.93;;;0.95;;
78372;SDS011;67656;52.074;4.758;2023-03-04T15:34:59;5.13;;;0.93;;
78372;SDS011;67656;52.074;4.758;2023-03-04T15:39:59;6.60;;;1.20;;
78372;SDS011;67656;52.074;4.758;2023-03-04T15:45:00;6.13;;;1.05;;
78372;SDS011;67656;52.074;4.758;2023-03-04T15:50:01;4.20;;;0.70;;
78372;SDS011;67656;52.074;4.758;2023-03-04T15:55:01;5.50;;;1.42;;
78372;SDS011;67656;52.074;4.758;2023-03-04T16:00:01;2.53;;;0.90;;
78372;SDS011;67656;52.074;4.758;2023-03-04T16:05:11;2.80;;;0.50;;
78372;SDS011;67656;52.074;4.758;2023-03-04T16:15:19;3.03;;;0.80;;
78372;SDS011;67656;52.074;4.758;2023-03-04T16:20:22;2.17;;;0.83;;
78372;SDS011;67656;52.074;4.758;2023-03-04T16:25:24;2.93;;;1.00;;
78372;SDS011;67656;52.074;4.758;2023-03-04T16:30:25;2.67;;;1.00;;
78372;SDS011;67656;52.074;4.758;2023-03-04T16:35:26;3.73;;;1.10;;
78372;SDS011;67656;52.074;4.758;2023-03-04T16:40:27;2.90;;;1.20;;
78372;SDS011;67656;52.074;4.758;2023-03-04T16:45:29;6.77;;;1.87;;
78372;SDS011;67656;52.074;4.758;2023-03-04T16:50:30;3.07;;;1.30;;
78372;SDS011;67656;52.074;4.758;2023-03-04T16:55:30;6.47;;;1.43;;
78372;SDS011;67656;52.074;4.758;2023-03-04T17:00:30;4.33;;;1.00;;
78372;SDS011;67656;52.074;4.758;2023-03-04T17:05:31;4.00;;;1.27;;
78372;SDS011;67656;52.074;4.758;2023-03-04T17:10:32;6.33;;;1.57;;
78372;SDS011;67656;52.074;4.758;2023-03-04T17:15:32;10.07;;;1.53;;
78372;SDS011;67656;52.074;4.758;2023-03-04T17:20:32;5.90;;;1.38;;
78372;SDS011;67656;52.074;4.758;2023-03-04T17:25:33;2.40;;;1.00;;
78372;SDS011;67656;52.074;4.758;2023-03-04T17:30:34;3.80;;;1.10;;
78372;SDS011;67656;52.074;4.758;2023-03-04T17:35:34;5.53;;;1.40;;
78372;SDS011;67656;52.074;4.758;2023-03-04T17:40:37;5.90;;;3.13;;
78372;SDS011;67656;52.074;4.758;2023-03-04T17:45:38;6.93;;;4.57;;
78372;SDS011;67656;52.074;4.758;2023-03-04T17:50:51;5.30;;;2.33;;
78372;SDS011;67656;52.074;4.758;2023-03-04T17:55:53;3.97;;;2.27;;
78372;SDS011;67656;52.074;4.758;2023-03-04T18:01:02;3.27;;;1.27;;
78372;SDS011;67656;52.074;4.758;2023-03-04T18:06:05;7.63;;;2.50;;
78372;SDS011;67656;52.074;4.758;2023-03-04T18:11:06;3.07;;;1.20;;
78372;SDS011;67656;52.074;4.758;2023-03-04T18:16:06;3.86;;;1.40;;
78372;SDS011;67656;52.074;4.758;2023-03-04T18:21:07;4.63;;;1.60;;
78372;SDS011;67656;52.074;4.758;2023-03-04T18:26:08;7.60;;;1.57;;
78372;SDS011;67656;52.074;4.758;2023-03-04T18:31:09;6.27;;;2.17;;
78372;SDS011;67656;52.074;4.758;2023-03-04T18:36:09;3.40;;;1.60;;
78372;SDS011;67656;52.074;4.758;2023-03-04T18:41:11;7.83;;;1.43;;
78372;SDS011;67656;52.074;4.758;2023-03-04T18:51:16;28.10;;;9.40;;
78372;SDS011;67656;52.074;4.758;2023-03-04T18:56:21;17.00;;;6.80;;
78372;SDS011;67656;52.074;4.758;2023-03-04T19:01:25;14.37;;;6.47;;
78372;SDS011;67656;52.074;4.758;2023-03-04T19:06:25;12.10;;;3.80;;
78372;SDS011;67656;52.074;4.758;2023-03-04T19:11:26;11.47;;;4.17;;
78372;SDS011;67656;52.074;4.758;2023-03-04T19:16:26;8.60;;;3.00;;
78372;SDS011;67656;52.074;4.758;2023-03-04T19:21:26;8.20;;;2.50;;
78372;SDS011;67656;52.074;4.758;2023-03-04T19:26:27;6.88;;;1.76;;
78372;SDS011;67656;52.074;4.758;2023-03-04T19:31:27;3.37;;;1.27;;
78372;SDS011;67656;52.074;4.758;2023-03-04T19:36:27;8.68;;;1.42;;
78372;SDS011;67656;52.074;4.758;2023-03-04T19:41:29;11.33;;;2.23;;
78372;SDS011;67656;52.074;4.758;2023-03-04T19:46:29;7.83;;;1.90;;
78372;SDS011;67656;52.074;4.758;2023-03-04T19:51:29;7.30;;;2.43;;
78372;SDS011;67656;52.074;4.758;2023-03-04T19:56:30;9.83;;;3.50;;
78372;SDS011;67656;52.074;4.758;2023-03-04T20:01:31;6.70;;;2.70;;
78372;SDS011;67656;52.074;4.758;2023-03-04T20:06:40;10.57;;;3.20;;
78372;SDS011;67656;52.074;4.758;2023-03-04T20:11:43;7.37;;;3.20;;
78372;SDS011;67656;52.074;4.758;2023-03-04T20:16:44;11.03;;;3.70;;
78372;SDS011;67656;52.074;4.758;2023-03-04T20:21:44;8.38;;;2.80;;
78372;SDS011;67656;52.074;4.758;2023-03-04T20:26:45;8.48;;;2.92;;
78372;SDS011;67656;52.074;4.758;2023-03-04T20:31:45;15.60;;;5.07;;
78372;SDS011;67656;52.074;4.758;2023-03-04T20:36:45;15.57;;;6.37;;
78372;SDS011;67656;52.074;4.758;2023-03-04T20:41:46;14.50;;;4.78;;
78372;SDS011;67656;52.074;4.758;2023-03-04T20:46:46;9.50;;;3.30;;
78372;SDS011;67656;52.074;4.758;2023-03-04T20:51:46;12.23;;;3.10;;
78372;SDS011;67656;52.074;4.758;2023-03-04T20:56:47;6.37;;;2.27;;
78372;SDS011;67656;52.074;4.758;2023-03-04T21:01:53;8.63;;;1.80;;
78372;SDS011;67656;52.074;4.758;2023-03-04T21:06:53;5.77;;;1.40;;
78372;SDS011;67656;52.074;4.758;2023-03-04T21:11:54;5.87;;;1.63;;
78372;SDS011;67656;52.074;4.758;2023-03-04T21:16:56;11.77;;;2.90;;
78372;SDS011;67656;52.074;4.758;2023-03-04T21:21:58;13.07;;;3.13;;
78372;SDS011;67656;52.074;4.758;2023-03-04T21:27:00;7.47;;;2.80;;
78372;SDS011;67656;52.074;4.758;2023-03-04T21:32:02;10.23;;;3.43;;
78372;SDS011;67656;52.074;4.758;2023-03-04T21:37:05;10.33;;;3.57;;
78372;SDS011;67656;52.074;4.758;2023-03-04T21:42:05;6.27;;;2.50;;
78372;SDS011;67656;52.074;4.758;2023-03-04T21:47:05;6.67;;;1.60;;
78372;SDS011;67656;52.074;4.758;2023-03-04T21:52:06;6.07;;;1.47;;
78372;SDS011;67656;52.074;4.758;2023-03-04T21:57:06;8.03;;;1.57;;
78372;SDS011;67656;52.074;4.758;2023-03-04T22:02:10;4.83;;;1.70;;
78372;SDS011;67656;52.074;4.758;2023-03-04T22:07:17;10.63;;;2.07;;
78372;SDS011;67656;52.074;4.758;2023-03-04T22:12:17;5.63;;;1.90;;
78372;SDS011;67656;52.074;4.758;2023-03-04T22:17:17;8.23;;;1.90;;
78372;SDS011;67656;52.074;4.758;2023-03-04T22:22:18;7.00;;;2.35;;
78372;SDS011;67656;52.074;4.758;2023-03-04T22:27:18;11.30;;;1.97;;
78372;SDS011;67656;52.074;4.758;2023-03-04T22:32:18;6.63;;;2.40;;
78372;SDS011;67656;52.074;4.758;2023-03-04T22:37:19;8.27;;;2.72;;
78372;SDS011;67656;52.074;4.758;2023-03-04T22:42:19;10.60;;;3.45;;
78372;SDS011;67656;52.074;4.758;2023-03-04T22:47:19;6.30;;;1.30;;
78372;SDS011;67656;52.074;4.758;2023-03-04T22:52:20;4.47;;;1.30;;
78372;SDS011;67656;52.074;4.758;2023-03-04T22:57:20;10.30;;;1.70;;
78372;SDS011;67656;52.074;4.758;2023-03-04T23:02:20;4.47;;;0.93;;
78372;SDS011;67656;52.074;4.758;2023-03-04T23:07:21;2.80;;;0.83;;
78372;SDS011;67656;52.074;4.758;2023-03-04T23:12:21;5.33;;;0.80;;
78372;SDS011;67656;52.074;4.758;2023-03-04T23:17:21;3.38;;;0.70;;
78372;SDS011;67656;52.074;4.758;2023-03-04T23:22:21;5.47;;;0.77;;
78372;SDS011;67656;52.074;4.758;2023-03-04T23:27:22;4.20;;;0.93;;
78372;SDS011;67656;52.074;4.758;2023-03-04T23:32:23;6.03;;;1.03;;
78372;SDS011;67656;52.074;4.758;2023-03-04T23:37:23;4.87;;;1.00;;
78372;SDS011;67656;52.074;4.758;2023-03-04T23:42:24;8.57;;;1.43;;
78372;SDS011;67656;52.074;4.758;2023-03-04T23:47:24;12.47;;;3.57;;
78372;SDS011;67656;52.074;4.758;2023-03-04T23:52:24;23.40;;;4.90;;
78372;SDS011;67656;52.074;4.758;2023-03-04T23:57:25;20.97;;;4.97;;
